Time;durP1;ratioP1;P1;durP2;ratioP2;P2;SDS_P1;SDS_P2;PMS_P1;PMS_P2;Temp;Humidity;BMP_temperature;BMP_pressure;BME280_temperature;BME280_humidity;BME280_pressure;Samples;Min_cycle;Max_cycle;Signal;HPM_P1;HPM_P2
2021/12/10 00:00:09;;;;;;;11.38;5.43;;;5.50;99.20;;;;;;5074146;28;20021;-77
2021/12/10 00:02:35;;;;;;;10.10;5.13;;;5.50;99.20;;;;;;5074640;28;20029;-77
2021/12/10 00:05:05;;;;;;;12.50;6.07;;;5.60;99.20;;;;;;5050641;28;20052;-77
2021/12/10 00:07:31;;;;;;;9.68;4.22;;;5.50;99.20;;;;;;5054402;28;20447;-77
2021/12/10 00:10:01;;;;;;;10.82;4.78;;;5.50;99.20;;;;;;5054234;28;20056;-77
2021/12/10 00:12:30;;;;;;;12.40;5.03;;;5.50;99.20;;;;;;5054421;28;20025;-77
2021/12/10 00:14:57;;;;;;;8.48;4.57;;;5.40;99.30;;;;;;5052877;28;20063;-77
2021/12/10 00:17:23;;;;;;;9.63;4.50;;;5.40;99.30;;;;;;5054537;28;20079;-77
2021/12/10 00:19:56;;;;;;;10.93;4.85;;;5.40;99.30;;;;;;5053319;28;20028;-77
2021/12/10 00:22:33;;;;;;;11.30;4.72;;;5.40;99.20;;;;;;5053086;28;20521;-77
2021/12/10 00:24:59;;;;;;;13.32;5.53;;;5.40;99.20;;;;;;5052746;28;20021;-77
2021/12/10 00:27:29;;;;;;;10.45;5.60;;;5.40;99.10;;;;;;5053112;28;20426;-78
2021/12/10 00:30:07;;;;;;;10.32;5.85;;;5.40;99.20;;;;;;5054086;28;20100;-77
2021/12/10 00:32:42;;;;;;;12.77;5.63;;;5.30;99.10;;;;;;5054239;28;20052;-77
2021/12/10 00:35:22;;;;;;;13.60;6.25;;;5.30;99.20;;;;;;5052528;28;20472;-77
2021/12/10 00:37:48;;;;;;;9.43;4.78;;;5.20;99.20;;;;;;5054251;28;20032;-77
2021/12/10 00:40:17;;;;;;;10.32;5.30;;;5.20;99.30;;;;;;5053471;28;20025;-77
2021/12/10 00:42:43;;;;;;;12.07;5.60;;;5.20;99.40;;;;;;5053881;28;20143;-77
2021/12/10 00:45:12;;;;;;;10.50;4.45;;;5.10;99.40;;;;;;5053039;28;20466;-78
2021/12/10 00:47:38;;;;;;;10.25;4.88;;;5.10;99.40;;;;;;5054184;28;20112;-77
2021/12/10 00:50:08;;;;;;;10.88;4.53;;;5.10;99.40;;;;;;5053216;28;20341;-77
2021/12/10 00:52:34;;;;;;;9.82;4.93;;;5.10;99.40;;;;;;5053881;28;20025;-77
2021/12/10 00:55:00;;;;;;;10.95;5.60;;;5.10;99.40;;;;;;5053266;28;20086;-78
2021/12/10 00:57:25;;;;;;;10.43;5.50;;;5.20;99.30;;;;;;5054141;28;20104;-78
2021/12/10 00:59:52;;;;;;;14.93;5.53;;;5.20;99.30;;;;;;5053888;28;20044;-77
2021/12/10 01:02:21;;;;;;;8.85;5.05;;;5.20;99.20;;;;;;5052151;28;20037;-76
2021/12/10 01:04:54;;;;;;;9.80;4.30;;;5.30;99.20;;;;;;5052059;28;20493;-76
2021/12/10 01:07:23;;;;;;;9.77;4.22;;;5.30;99.10;;;;;;5053625;28;20502;-76
2021/12/10 01:09:51;;;;;;;10.90;5.40;;;5.40;99.00;;;;;;5052220;28;20052;-77
2021/12/10 01:12:31;;;;;;;12.27;6.00;;;5.40;98.90;;;;;;5053150;28;20096;-77
2021/12/10 01:26:09;;;;;;;8.02;4.70;;;5.50;98.70;;;;;;5053412;28;20056;-77
2021/12/10 01:28:38;;;;;;;12.57;5.32;;;5.50;98.60;;;;;;5053272;28;20052;-77
2021/12/10 01:31:04;;;;;;;9.10;5.43;;;5.50;98.60;;;;;;5051228;28;20025;-77
2021/12/10 01:33:29;;;;;;;10.02;4.70;;;5.50;98.60;;;;;;5052020;28;20028;-78
2021/12/10 01:35:57;;;;;;;9.45;4.95;;;5.50;98.60;;;;;;5051325;28;20024;-77
2021/12/10 01:38:24;;;;;;;8.65;5.47;;;5.50;98.60;;;;;;5051493;28;20025;-77
2021/12/10 01:40:55;;;;;;;10.10;5.18;;;5.50;98.60;;;;;;5051903;28;20079;-77
2021/12/10 01:43:24;;;;;;;12.10;6.43;;;5.50;98.70;;;;;;5051394;28;20056;-77
2021/12/10 01:46:01;;;;;;;10.68;4.90;;;5.40;98.70;;;;;;5051719;28;20112;-77
2021/12/10 01:48:31;;;;;;;9.85;5.18;;;5.30;98.90;;;;;;5053249;28;20465;-78
2021/12/10 01:50:58;;;;;;;9.40;5.20;;;5.30;98.90;;;;;;5052880;28;20032;-77
2021/12/10 01:53:27;;;;;;;9.00;4.85;;;5.20;99.00;;;;;;5053123;28;20536;-77
2021/12/10 01:55:56;;;;;;;15.35;5.47;;;5.20;99.00;;;;;;5051530;28;20029;-76
2021/12/10 01:58:25;;;;;;;8.85;4.93;;;5.10;99.10;;;;;;5052269;28;20021;-77
2021/12/10 02:01:02;;;;;;;11.65;4.82;;;5.00;99.20;;;;;;5051043;28;20497;-77
2021/12/10 02:03:28;;;;;;;9.35;5.13;;;5.00;99.20;;;;;;5052541;28;20033;-76
2021/12/10 02:05:54;;;;;;;10.52;5.82;;;5.00;99.30;;;;;;5051098;28;20591;-76
2021/12/10 02:08:20;;;;;;;11.30;5.15;;;4.90;99.30;;;;;;5050708;28;20078;-76
2021/12/10 02:10:46;;;;;;;8.48;4.78;;;4.90;99.30;;;;;;5051169;28;20111;-76
2021/12/10 02:13:11;;;;;;;10.77;4.88;;;4.90;99.40;;;;;;5050656;28;20461;-77
2021/12/10 02:15:37;;;;;;;10.10;5.13;;;4.80;99.40;;;;;;5052368;28;20040;-77
2021/12/10 02:18:04;;;;;;;6.43;4.40;;;4.80;99.40;;;;;;5051976;28;20150;-77
2021/12/10 02:20:40;;;;;;;8.40;4.38;;;4.80;99.40;;;;;;5068041;28;20024;-77
2021/12/10 02:23:07;;;;;;;11.00;5.13;;;4.80;99.40;;;;;;5051738;28;20382;-77
2021/12/10 02:25:37;;;;;;;8.70;5.00;;;4.70;99.40;;;;;;5051041;28;20025;-77
2021/12/10 02:28:05;;;;;;;10.38;4.72;;;4.70;99.40;;;;;;5050629;28;20022;-77
2021/12/10 02:30:31;;;;;;;7.70;4.47;;;4.70;99.40;;;;;;5052436;28;20508;-77
2021/12/10 02:32:57;;;;;;;6.75;4.10;;;4.70;99.50;;;;;;5052128;28;20033;-77
2021/12/10 02:35:25;;;;;;;10.35;5.00;;;4.60;99.50;;;;;;5051499;28;20456;-78
2021/12/10 02:37:50;;;;;;;8.07;4.40;;;4.60;99.50;;;;;;5050985;28;20082;-77
2021/12/10 02:40:19;;;;;;;11.18;4.82;;;4.60;99.50;;;;;;5051588;28;20025;-77
2021/12/10 02:42:48;;;;;;;8.93;3.90;;;4.60;99.50;;;;;;5050968;28;20084;-77
2021/12/10 02:45:16;;;;;;;7.50;3.90;;;4.50;99.50;;;;;;5052034;28;20100;-77
2021/12/10 02:47:44;;;;;;;7.53;4.10;;;4.60;99.60;;;;;;5052269;28;20022;-77
2021/12/10 02:50:11;;;;;;;7.63;4.70;;;4.50;99.50;;;;;;5052113;28;20013;-77
2021/12/10 02:52:36;;;;;;;8.80;4.13;;;4.50;99.50;;;;;;5051027;28;20036;-77
2021/12/10 02:55:04;;;;;;;7.07;3.80;;;4.50;99.50;;;;;;5050392;28;20017;-77
2021/12/10 02:57:30;;;;;;;8.75;3.75;;;4.50;99.60;;;;;;5050914;28;20114;-77
2021/12/10 02:59:56;;;;;;;8.40;4.07;;;4.40;99.60;;;;;;5052291;28;20476;-77
2021/12/10 03:02:24;;;;;;;7.20;3.38;;;4.40;99.60;;;;;;5050297;28;20119;-77
2021/12/10 03:04:51;;;;;;;8.68;4.68;;;4.40;99.60;;;;;;5050281;28;20045;-77
2021/12/10 03:07:19;;;;;;;6.45;3.92;;;4.40;99.60;;;;;;5052509;28;20350;-77
2021/12/10 03:09:49;;;;;;;9.32;4.43;;;4.40;99.60;;;;;;5054691;28;20124;-77
2021/12/10 03:12:17;;;;;;;7.75;3.72;;;4.40;99.60;;;;;;5054081;28;20057;-77
2021/12/10 03:14:48;;;;;;;6.10;3.70;;;4.40;99.50;;;;;;5055980;28;20020;-77
2021/12/10 03:17:20;;;;;;;8.00;4.32;;;4.40;99.60;;;;;;5055106;28;20059;-77
2021/12/10 03:19:46;;;;;;;7.88;3.83;;;4.40;99.60;;;;;;5055663;28;20508;-77
2021/12/10 03:22:12;;;;;;;12.48;4.32;;;4.40;99.60;;;;;;5055146;28;20053;-76
2021/12/10 03:24:38;;;;;;;8.45;4.28;;;4.30;99.50;;;;;;5055360;28;20118;-77
2021/12/10 03:27:06;;;;;;;9.27;4.90;;;4.40;99.50;;;;;;5055066;28;20029;-77
2021/12/10 03:29:35;;;;;;;9.23;3.70;;;4.30;99.50;;;;;;5055184;28;20025;-77
2021/12/10 03:32:06;;;;;;;6.90;3.78;;;4.30;99.50;;;;;;5055435;28;20461;-75
2021/12/10 03:34:32;;;;;;;9.75;3.38;;;4.30;99.50;;;;;;5054029;28;20017;-78
2021/12/10 03:36:59;;;;;;;6.53;3.25;;;4.30;99.50;;;;;;5054325;28;20389;-75
2021/12/10 03:39:26;;;;;;;7.75;3.97;;;4.30;99.50;;;;;;5054880;28;20013;-76
2021/12/10 03:41:54;;;;;;;6.35;3.40;;;4.30;99.50;;;;;;5055218;28;20123;-75
2021/12/10 03:44:20;;;;;;;7.63;3.97;;;4.30;99.50;;;;;;5053381;28;20056;-75
2021/12/10 03:46:46;;;;;;;8.93;4.20;;;4.20;99.50;;;;;;5055144;28;20422;-75
2021/12/10 03:49:13;;;;;;;7.13;3.65;;;4.20;99.50;;;;;;5053369;28;20028;-75
2021/12/10 03:51:39;;;;;;;10.20;3.72;;;4.20;99.50;;;;;;5055321;28;20025;-75
2021/12/10 03:54:06;;;;;;;6.47;3.47;;;4.30;99.50;;;;;;5053680;28;20040;-75
2021/12/10 03:56:33;;;;;;;6.82;3.60;;;4.30;99.50;;;;;;5055137;28;20025;-76
2021/12/10 03:59:03;;;;;;;6.57;3.38;;;4.20;99.50;;;;;;5054886;28;20038;-76
2021/12/10 04:01:32;;;;;;;7.20;3.67;;;4.20;99.40;;;;;;5054710;28;20025;-76
2021/12/10 04:04:00;;;;;;;6.60;3.20;;;4.20;99.40;;;;;;5053498;28;20037;-76
2021/12/10 04:06:26;;;;;;;5.22;2.70;;;4.20;99.40;;;;;;5073002;28;20217;-76
2021/12/10 04:08:52;;;;;;;7.75;3.45;;;4.20;99.40;;;;;;5056734;28;20373;-77
2021/12/10 04:11:20;;;;;;;6.75;2.90;;;4.20;99.40;;;;;;5056367;28;20452;-76
2021/12/10 04:13:48;;;;;;;7.13;2.88;;;4.20;99.40;;;;;;5056792;28;20086;-76
2021/12/10 04:16:17;;;;;;;9.00;3.08;;;4.20;99.50;;;;;;5069501;28;20170;-76
2021/12/10 04:18:43;;;;;;;6.88;3.28;;;4.20;99.40;;;;;;5053437;28;20029;-75
2021/12/10 04:21:09;;;;;;;9.25;3.08;;;4.20;99.50;;;;;;5053711;28;20036;-75
2021/12/10 04:23:37;;;;;;;6.45;3.47;;;4.20;99.50;;;;;;5054385;28;20025;-75
2021/12/10 04:26:03;;;;;;;8.23;3.22;;;4.20;99.50;;;;;;5070082;28;20017;-76
2021/12/10 04:28:29;;;;;;;7.20;3.25;;;4.10;99.50;;;;;;5069355;28;20508;-76
2021/12/10 04:30:55;;;;;;;7.22;3.55;;;4.20;99.50;;;;;;5052977;28;20100;-76
2021/12/10 04:33:25;;;;;;;5.25;3.17;;;4.10;99.50;;;;;;5053720;28;20469;-76
2021/12/10 04:35:53;;;;;;;6.63;2.63;;;4.10;99.40;;;;;;5052815;28;20082;-76
2021/12/10 04:38:20;;;;;;;5.30;3.45;;;4.10;99.40;;;;;;5069090;28;20473;-76
2021/12/10 04:40:48;;;;;;;8.30;3.22;;;4.10;99.40;;;;;;5052854;28;20021;-76
2021/12/10 04:43:15;;;;;;;5.65;3.25;;;4.20;99.40;;;;;;5068940;28;20048;-76
2021/12/10 04:45:41;;;;;;;6.45;3.00;;;4.10;99.40;;;;;;5052770;28;20477;-76
2021/12/10 04:48:07;;;;;;;5.70;2.95;;;4.20;99.40;;;;;;5053970;28;20345;-76
2021/12/10 04:50:34;;;;;;;7.95;2.95;;;4.10;99.40;;;;;;5052344;28;20044;-77
2021/12/10 04:53:00;;;;;;;5.40;3.08;;;4.10;99.40;;;;;;5054257;28;20076;-76
2021/12/10 04:55:28;;;;;;;6.57;2.83;;;4.10;99.40;;;;;;5053664;28;20025;-76
2021/12/10 04:57:53;;;;;;;6.90;3.08;;;4.10;99.40;;;;;;5053955;28;20025;-76
2021/12/10 05:00:29;;;;;;;4.72;2.17;;;4.10;99.30;;;;;;5053250;28;20025;-75
2021/12/10 05:02:57;;;;;;;9.40;3.15;;;4.10;99.40;;;;;;5052392;28;20028;-75
2021/12/10 05:05:22;;;;;;;8.00;2.78;;;4.10;99.40;;;;;;5051363;28;20056;-75
2021/12/10 05:07:50;;;;;;;10.98;3.08;;;4.10;99.30;;;;;;5058803;28;20024;-77
2021/12/10 05:10:17;;;;;;;8.10;3.20;;;4.10;99.40;;;;;;5093063;28;20476;-77
2021/12/10 05:12:43;;;;;;;6.35;3.42;;;4.10;99.40;;;;;;5075629;28;20027;-76
2021/12/10 05:15:12;;;;;;;6.00;3.08;;;4.00;99.40;;;;;;5093800;28;20067;-77
2021/12/10 05:17:39;;;;;;;8.85;4.00;;;4.00;99.40;;;;;;5093908;28;20020;-76
2021/12/10 05:20:13;;;;;;;7.18;3.30;;;4.00;99.40;;;;;;5075808;28;20027;-76
2021/12/10 05:22:44;;;;;;;7.80;3.30;;;4.00;99.40;;;;;;5093656;28;20389;-75
2021/12/10 05:25:10;;;;;;;5.80;2.67;;;4.00;99.40;;;;;;5075545;28;20458;-76
2021/12/10 05:27:38;;;;;;;9.85;3.15;;;4.00;99.40;;;;;;5074862;28;20061;-76
2021/12/10 05:30:07;;;;;;;6.88;3.58;;;4.00;99.40;;;;;;5093456;28;20016;-76
2021/12/10 05:32:33;;;;;;;6.75;2.83;;;4.00;99.40;;;;;;5074836;28;20104;-77
2021/12/10 05:34:59;;;;;;;6.95;3.08;;;4.00;99.40;;;;;;5075287;28;20035;-76
2021/12/10 05:37:25;;;;;;;6.63;3.40;;;4.00;99.40;;;;;;5092817;28;20376;-76
2021/12/10 05:39:51;;;;;;;7.07;3.72;;;3.90;99.40;;;;;;5093213;28;20023;-74
2021/12/10 05:42:17;;;;;;;8.80;3.50;;;4.00;99.40;;;;;;5092358;28;20024;-76
2021/12/10 05:44:43;;;;;;;4.88;2.90;;;4.00;99.40;;;;;;5092991;28;20539;-75
2021/12/10 05:47:09;;;;;;;5.85;2.85;;;4.00;99.60;;;;;;5074451;28;20023;-75
2021/12/10 05:49:35;;;;;;;5.82;2.55;;;4.00;99.40;;;;;;5073080;28;20077;-75
2021/12/10 05:52:02;;;;;;;7.63;2.97;;;4.00;99.40;;;;;;5092533;28;20020;-76
2021/12/10 05:54:28;;;;;;;5.82;3.78;;;4.00;99.30;;;;;;5092344;28;20143;-76
2021/12/10 05:56:54;;;;;;;6.70;2.60;;;4.00;99.30;;;;;;5092634;28;20051;-75
2021/12/10 05:59:19;;;;;;;7.00;3.05;;;4.10;99.30;;;;;;5073921;28;20020;-75
2021/12/10 06:01:45;;;;;;;5.45;3.13;;;4.10;99.30;;;;;;5092951;28;20033;-75
2021/12/10 06:04:11;;;;;;;6.03;2.58;;;4.10;99.20;;;;;;5074623;28;20388;-75
2021/12/10 06:06:38;;;;;;;5.20;2.55;;;4.20;99.20;;;;;;5073890;28;20493;-75
2021/12/10 06:09:08;;;;;;;8.77;2.60;;;4.20;99.10;;;;;;5092449;28;20494;-75
2021/12/10 06:11:35;;;;;;;8.45;2.92;;;4.20;99.10;;;;;;5074123;28;20024;-75
2021/12/10 06:14:01;;;;;;;7.53;2.72;;;4.20;99.00;;;;;;5092637;28;20024;-75
2021/12/10 06:16:27;;;;;;;9.88;2.88;;;4.20;99.00;;;;;;5091854;28;20024;-76
2021/12/10 06:18:53;;;;;;;8.80;2.95;;;4.30;99.00;;;;;;5092705;28;20020;-75
2021/12/10 06:21:19;;;;;;;4.82;2.65;;;4.30;98.90;;;;;;5092305;28;20035;-75
2021/12/10 06:23:46;;;;;;;8.38;2.78;;;4.30;98.90;;;;;;5092324;28;20506;-75
2021/12/10 06:26:12;;;;;;;7.20;2.63;;;4.30;98.90;;;;;;5074349;28;20033;-75
2021/12/10 06:28:44;;;;;;;5.28;2.38;;;4.30;98.90;;;;;;5073778;28;20032;-75
2021/12/10 06:31:10;;;;;;;7.28;2.60;;;4.30;98.90;;;;;;5074141;28;20119;-75
2021/12/10 06:33:36;;;;;;;10.23;2.38;;;4.30;98.90;;;;;;5091918;28;20062;-75
2021/12/10 06:36:03;;;;;;;4.88;2.13;;;4.30;98.80;;;;;;5092420;28;20040;-75
2021/12/10 06:38:30;;;;;;;5.38;2.13;;;4.30;98.80;;;;;;5073736;28;20021;-75
2021/12/10 06:40:56;;;;;;;6.55;2.08;;;4.30;98.80;;;;;;5092413;28;20028;-75
2021/12/10 06:43:22;;;;;;;4.35;2.05;;;4.30;98.80;;;;;;5076937;28;20032;-75
2021/12/10 06:45:49;;;;;;;5.78;2.60;;;4.30;98.80;;;;;;5078333;28;20024;-75
2021/12/10 06:48:16;;;;;;;6.35;2.55;;;4.30;98.70;;;;;;5096189;28;20387;-75
2021/12/10 06:50:48;;;;;;;4.72;2.30;;;4.30;98.70;;;;;;5095915;28;20154;-75
2021/12/10 06:53:15;;;;;;;4.72;2.05;;;4.30;98.70;;;;;;5078053;28;20063;-76
2021/12/10 06:55:41;;;;;;;7.90;3.05;;;4.30;98.70;;;;;;5095918;28;20020;-75
2021/12/10 06:58:07;;;;;;;5.18;2.58;;;4.30;98.70;;;;;;5096583;28;20026;-76
2021/12/10 07:01:02;;;;;;;5.32;1.90;;;4.30;98.60;;;;;;5077642;28;20069;-75
2021/12/10 07:03:29;;;;;;;4.47;1.80;;;4.40;98.60;;;;;;5093076;28;20044;-75
2021/12/10 07:05:57;;;;;;;6.28;2.03;;;4.40;98.60;;;;;;5077597;28;20134;-75
2021/12/10 07:08:25;;;;;;;6.65;2.28;;;4.40;98.50;;;;;;5095767;28;20024;-75
2021/12/10 07:10:52;;;;;;;4.35;2.13;;;4.40;98.50;;;;;;5095601;28;20028;-75
2021/12/10 07:13:18;;;;;;;10.15;2.13;;;4.50;98.50;;;;;;5077674;28;20050;-75
2021/12/10 07:15:47;;;;;;;2.65;1.80;;;4.50;98.40;;;;;;5095442;28;20020;-75
2021/12/10 07:18:13;;;;;;;6.00;2.40;;;4.60;98.40;;;;;;5077620;28;20016;-75
2021/12/10 07:20:41;;;;;;;4.75;2.30;;;4.60;98.30;;;;;;5095177;28;20090;-75
2021/12/10 07:23:07;;;;;;;4.43;2.30;;;4.60;98.30;;;;;;5095317;28;20395;-75
2021/12/10 07:25:33;;;;;;;3.08;1.95;;;4.60;98.20;;;;;;5095504;28;20103;-76
2021/12/10 07:27:59;;;;;;;5.70;2.22;;;4.70;98.20;;;;;;5077440;28;20112;-76
2021/12/10 07:30:26;;;;;;;8.38;2.58;;;4.60;98.20;;;;;;5077029;28;20460;-74
2021/12/10 07:32:52;;;;;;;5.63;2.22;;;4.60;98.20;;;;;;5077292;28;20446;-75
2021/12/10 07:35:19;;;;;;;3.95;1.73;;;4.70;98.20;;;;;;5095540;28;20416;-75
2021/12/10 07:37:45;;;;;;;6.65;2.55;;;4.70;98.20;;;;;;5095064;28;20114;-75
2021/12/10 07:40:14;;;;;;;4.95;1.90;;;4.70;98.10;;;;;;5077258;28;20111;-76
2021/12/10 07:42:40;;;;;;;6.22;2.45;;;4.70;98.10;;;;;;5095030;28;20029;-76
2021/12/10 07:45:07;;;;;;;3.70;2.00;;;4.70;98.10;;;;;;5094921;28;20031;-76
2021/12/10 07:47:36;;;;;;;3.97;2.17;;;4.80;98.10;;;;;;5094833;28;20020;-75
2021/12/10 07:50:12;;;;;;;3.92;1.88;;;4.80;98.00;;;;;;5076846;28;20024;-75
2021/12/10 07:52:40;;;;;;;3.75;1.90;;;4.80;98.00;;;;;;5094447;28;20031;-75
2021/12/10 07:55:10;;;;;;;5.18;2.28;;;4.80;98.00;;;;;;5095132;28;20076;-75
2021/12/10 07:57:36;;;;;;;5.38;2.05;;;4.80;97.90;;;;;;5094589;28;20013;-75
2021/12/10 08:00:06;;;;;;;6.85;2.88;;;4.90;97.90;;;;;;5094922;28;20035;-76
2021/12/10 08:02:32;;;;;;;7.72;2.03;;;4.90;97.90;;;;;;5094112;28;20101;-76
2021/12/10 08:04:57;;;;;;;4.32;1.48;;;4.90;97.90;;;;;;5094630;28;20072;-76
2021/12/10 08:07:25;;;;;;;4.28;2.05;;;4.90;97.80;;;;;;5076148;28;20068;-75
2021/12/10 08:09:51;;;;;;;5.00;2.30;;;4.90;97.80;;;;;;5076412;28;20028;-75
2021/12/10 08:12:17;;;;;;;3.78;2.53;;;4.90;97.80;;;;;;5094647;28;20054;-75
2021/12/10 08:14:44;;;;;;;5.63;2.22;;;5.00;97.80;;;;;;5094606;28;20028;-75
2021/12/10 08:17:10;;;;;;;6.32;2.70;;;5.00;97.80;;;;;;5094741;28;20020;-75
2021/12/10 08:19:36;;;;;;;5.25;2.17;;;5.00;97.70;;;;;;5094292;28;20051;-75
2021/12/10 08:22:02;;;;;;;5.45;2.40;;;5.00;97.70;;;;;;5094558;28;20056;-75
2021/12/10 08:24:28;;;;;;;3.83;2.47;;;5.00;97.70;;;;;;5094124;28;20016;-75
2021/12/10 08:26:55;;;;;;;9.00;2.30;;;5.00;97.70;;;;;;5094619;28;20073;-75
2021/12/10 08:29:21;;;;;;;3.03;1.90;;;5.10;97.70;;;;;;5076471;28;20037;-75
2021/12/10 08:31:47;;;;;;;4.40;2.08;;;5.10;97.70;;;;;;5094009;28;20527;-76
2021/12/10 08:34:14;;;;;;;6.40;2.42;;;5.10;97.60;;;;;;5094685;28;20103;-76
2021/12/10 08:36:39;;;;;;;5.38;2.20;;;5.10;97.60;;;;;;5093635;28;20384;-76
2021/12/10 08:39:07;;;;;;;5.45;2.10;;;5.20;97.60;;;;;;5094286;28;20058;-76
2021/12/10 08:41:34;;;;;;;4.78;2.20;;;5.20;97.60;;;;;;5094083;28;20487;-76
2021/12/10 08:44:00;;;;;;;3.65;2.28;;;5.20;97.50;;;;;;5094106;28;20035;-76
2021/12/10 08:46:28;;;;;;;4.78;2.45;;;5.20;97.40;;;;;;5075572;28;20016;-75
2021/12/10 08:48:58;;;;;;;9.45;2.97;;;5.20;97.40;;;;;;5094007;28;20020;-76
2021/12/10 08:51:31;;;;;;;5.63;2.83;;;5.20;97.40;;;;;;5075761;28;20402;-76
2021/12/10 08:53:58;;;;;;;5.32;3.17;;;5.20;97.40;;;;;;5076226;28;20081;-75
2021/12/10 08:56:24;;;;;;;5.43;2.90;;;5.30;97.40;;;;;;5075921;28;20027;-76
2021/12/10 08:58:50;;;;;;;4.10;2.47;;;5.30;97.30;;;;;;5075256;28;20020;-75
2021/12/10 09:01:23;;;;;;;5.70;2.03;;;5.40;97.30;;;;;;5075817;28;20020;-76
2021/12/10 09:03:54;;;;;;;5.15;2.20;;;5.30;97.30;;;;;;5093447;28;20020;-76
2021/12/10 09:06:25;;;;;;;6.50;2.35;;;5.40;97.20;;;;;;5074870;28;20098;-75
2021/12/10 09:08:52;;;;;;;4.32;2.40;;;5.40;97.20;;;;;;5075092;28;20039;-74
2021/12/10 09:11:18;;;;;;;5.05;2.58;;;5.40;97.20;;;;;;5075558;28;20114;-75
2021/12/10 09:13:44;;;;;;;4.88;2.20;;;5.40;97.20;;;;;;5075028;28;20486;-75
2021/12/10 09:16:21;;;;;;;4.88;2.63;;;5.40;97.10;;;;;;5093239;28;20533;-75
2021/12/10 09:18:48;;;;;;;5.88;2.60;;;5.50;97.10;;;;;;5093310;28;20020;-75
2021/12/10 09:21:14;;;;;;;5.07;2.50;;;5.50;97.10;;;;;;5093348;28;20024;-76
2021/12/10 09:23:40;;;;;;;6.07;2.60;;;5.50;97.10;;;;;;5074536;28;20452;-76
2021/12/10 09:26:12;;;;;;;4.70;2.05;;;5.50;97.00;;;;;;5074913;28;20028;-76
2021/12/10 09:28:42;;;;;;;6.13;2.20;;;5.60;97.00;;;;;;5092458;28;20390;-76
2021/12/10 09:31:09;;;;;;;4.13;2.28;;;5.60;97.00;;;;;;5074803;28;20024;-75
2021/12/10 09:33:35;;;;;;;4.15;2.50;;;5.60;96.90;;;;;;5074336;28;20085;-76
2021/12/10 09:36:02;;;;;;;5.43;2.45;;;5.60;96.90;;;;;;5093085;28;20528;-76
2021/12/10 09:38:28;;;;;;;6.30;2.35;;;5.60;96.80;;;;;;5093047;28;20098;-75
2021/12/10 09:41:02;;;;;;;3.95;2.15;;;5.70;96.80;;;;;;5092683;28;20392;-75
2021/12/10 09:43:28;;;;;;;4.88;2.40;;;5.70;96.80;;;;;;5074870;28;20169;-76
2021/12/10 09:45:55;;;;;;;3.60;2.03;;;5.70;96.80;;;;;;5092228;28;20070;-75
2021/12/10 09:48:23;;;;;;;9.70;2.60;;;5.70;96.70;;;;;;5092930;28;20027;-75
2021/12/10 09:50:58;;;;;;;6.82;2.28;;;5.80;96.70;;;;;;5074183;28;20024;-75
2021/12/10 09:53:27;;;;;;;5.10;2.20;;;5.80;96.70;;;;;;5093161;28;20056;-75
2021/12/10 09:55:53;;;;;;;4.95;2.47;;;5.80;96.70;;;;;;5092662;28;20082;-75
2021/12/10 09:58:21;;;;;;;5.13;2.00;;;5.90;96.70;;;;;;5074982;28;20191;-76
2021/12/10 10:00:59;;;;;;;4.85;2.03;;;5.90;96.60;;;;;;5092016;28;20052;-76
2021/12/10 10:03:30;;;;;;;4.43;2.35;;;5.90;96.70;;;;;;5092749;28;20024;-76
2021/12/10 10:05:56;;;;;;;8.18;2.72;;;5.90;96.60;;;;;;5091655;28;20093;-76
2021/12/10 10:08:25;;;;;;;6.47;2.10;;;5.90;96.60;;;;;;5092563;28;20552;-76
2021/12/10 10:10:56;;;;;;;5.05;2.08;;;5.90;96.60;;;;;;5092080;28;20066;-75
2021/12/10 10:13:28;;;;;;;3.08;1.92;;;5.90;96.50;;;;;;5092506;28;20024;-75
2021/12/10 10:15:56;;;;;;;5.35;2.05;;;5.90;96.50;;;;;;5091581;28;20032;-76
2021/12/10 10:18:23;;;;;;;7.57;2.83;;;5.90;96.50;;;;;;5073716;28;20476;-76
2021/12/10 10:20:56;;;;;;;6.07;2.10;;;6.00;96.50;;;;;;5091804;28;20020;-75
2021/12/10 10:23:23;;;;;;;5.35;2.20;;;6.00;96.50;;;;;;5092443;28;20028;-76
2021/12/10 10:25:53;;;;;;;5.68;1.92;;;6.00;96.50;;;;;;5073790;28;20460;-75
2021/12/10 10:28:19;;;;;;;3.90;2.10;;;6.10;96.50;;;;;;5074178;28;20087;-75
2021/12/10 10:30:56;;;;;;;6.00;2.33;;;6.10;96.40;;;;;;5073979;28;20027;-76
2021/12/10 10:33:23;;;;;;;6.00;1.88;;;6.10;96.40;;;;;;5074350;28;20498;-76
2021/12/10 10:35:53;;;;;;;3.80;1.90;;;6.10;96.40;;;;;;5073850;28;20491;-76
2021/12/10 10:38:19;;;;;;;7.53;2.10;;;6.20;96.40;;;;;;5092542;28;20028;-75
2021/12/10 10:40:54;;;;;;;5.93;2.15;;;6.20;96.30;;;;;;5073652;28;20027;-76
2021/12/10 10:43:23;;;;;;;4.38;2.03;;;6.20;96.30;;;;;;5074227;28;20032;-76
2021/12/10 10:45:48;;;;;;;4.68;2.30;;;6.20;96.30;;;;;;5092109;28;20119;-75
2021/12/10 10:48:16;;;;;;;5.32;2.25;;;6.20;96.30;;;;;;5092275;28;20024;-76
2021/12/10 10:50:56;;;;;;;3.17;2.13;;;6.30;96.30;;;;;;5073634;28;20051;-76
2021/12/10 10:53:27;;;;;;;5.32;2.17;;;6.40;96.30;;;;;;5074161;28;20118;-75
2021/12/10 10:56:01;;;;;;;4.32;1.70;;;6.40;96.20;;;;;;5091941;28;20020;-76
2021/12/10 10:58:32;;;;;;;9.32;1.90;;;6.40;96.20;;;;;;5074058;28;20016;-76
2021/12/10 11:01:14;;;;;;;8.98;2.45;;;6.40;96.10;;;;;;5073130;28;20034;-75
2021/12/10 11:03:58;;;;;;;8.20;3.58;;;6.50;96.10;;;;;;5091546;28;20024;-75
2021/12/10 11:06:39;;;;;;;6.75;2.90;;;6.50;96.00;;;;;;5092300;28;20044;-76
2021/12/10 11:09:16;;;;;;;5.00;2.15;;;6.60;96.00;;;;;;5092171;28;20020;-75
2021/12/10 11:11:47;;;;;;;3.67;1.80;;;6.60;96.00;;;;;;5073800;28;20353;-76
2021/12/10 11:14:26;;;;;;;4.53;2.28;;;6.60;95.90;;;;;;5092158;28;20426;-76
2021/12/10 11:17:02;;;;;;;5.32;2.80;;;6.70;96.00;;;;;;5092002;28;20026;-75
2021/12/10 11:19:29;;;;;;;4.65;2.10;;;6.60;95.90;;;;;;5092539;28;20016;-75
2021/12/10 11:21:58;;;;;;;7.05;2.45;;;6.70;95.90;;;;;;5073945;28;20024;-75
2021/12/10 11:24:46;;;;;;;4.70;1.55;;;6.70;95.90;;;;;;5074249;28;20442;-75
2021/12/10 11:27:19;;;;;;;4.22;1.55;;;6.70;95.90;;;;;;5074084;28;20035;-77
2021/12/10 11:29:55;;;;;;;3.42;1.52;;;6.70;95.80;;;;;;5095247;28;20028;-76
2021/12/10 11:32:40;;;;;;;3.25;1.75;;;6.70;95.80;;;;;;5095801;28;20024;-76
2021/12/10 11:35:24;;;;;;;4.20;1.88;;;6.70;95.80;;;;;;5095743;28;20024;-76
2021/12/10 11:38:17;;;;;;;3.45;1.75;;;6.70;95.80;;;;;;5076863;28;20020;-76
2021/12/10 11:40:54;;;;;;;3.65;1.45;;;6.70;95.80;;;;;;5095205;28;20020;-76
2021/12/10 11:48:54;;;;;;;4.20;1.58;;;6.70;95.80;;;;;;5063299;28;20052;-76
2021/12/10 11:51:21;;;;;;;6.03;1.83;;;6.70;95.80;;;;;;5077324;28;20048;-76
2021/12/10 11:53:52;;;;;;;4.55;1.63;;;6.70;95.80;;;;;;5076564;28;20024;-76
2021/12/10 11:56:37;;;;;;;3.80;1.60;;;6.70;95.80;;;;;;5077290;28;20031;-76
2021/12/10 11:59:16;;;;;;;5.13;2.55;;;6.70;95.80;;;;;;5095132;28;20020;-76
2021/12/10 12:01:57;;;;;;;4.82;1.70;;;6.70;95.80;;;;;;5066664;28;20029;-76
2021/12/10 12:04:30;;;;;;;6.13;2.00;;;6.70;95.80;;;;;;5069317;28;20032;-76
2021/12/10 12:07:39;;;;;;;4.65;1.73;;;6.70;95.80;;;;;;5036030;28;20059;-76
2021/12/10 12:10:19;;;;;;;4.72;1.70;;;6.70;95.70;;;;;;5054602;28;20017;-75
2021/12/10 12:13:11;;;;;;;3.67;1.80;;;6.70;95.70;;;;;;5052966;28;20278;-76
2021/12/10 12:15:42;;;;;;;4.47;1.85;;;6.80;95.70;;;;;;5054494;28;20017;-75
2021/12/10 12:18:29;;;;;;;3.00;1.60;;;6.80;95.70;;;;;;5053234;28;20028;-75
2021/12/10 12:21:37;;;;;;;3.00;1.15;;;6.80;95.70;;;;;;5035834;28;20025;-75
2021/12/10 12:26:38;;;;;;;1.77;1.58;;;6.70;95.70;;;;;;5025401;28;20037;-76
2021/12/10 12:29:11;;;;;;;3.63;1.77;;;6.70;95.70;;;;;;5053544;28;20135;-75
2021/12/10 12:31:44;;;;;;;4.47;2.10;;;6.80;95.70;;;;;;5069724;28;20025;-76
2021/12/10 12:34:17;;;;;;;5.47;2.33;;;6.80;95.70;;;;;;5054384;28;20075;-76
2021/12/10 12:36:51;;;;;;;4.32;1.73;;;6.70;95.70;;;;;;5053938;28;20529;-76
2021/12/10 12:39:34;;;;;;;3.05;1.90;;;6.70;95.70;;;;;;5053609;28;20025;-75
2021/12/10 12:42:23;;;;;;;4.82;1.88;;;6.70;95.60;;;;;;5053640;28;20533;-75
2021/12/10 12:45:04;;;;;;;3.67;1.92;;;6.70;95.60;;;;;;5034883;28;20041;-75
2021/12/10 12:47:33;;;;;;;4.80;1.40;;;6.70;95.60;;;;;;5054243;28;20104;-76
2021/12/10 12:50:08;;;;;;;5.30;1.75;;;6.70;95.60;;;;;;5053547;28;20024;-76
2021/12/10 12:52:46;;;;;;;3.83;1.83;;;6.70;95.60;;;;;;5054156;28;20461;-76
2021/12/10 12:55:18;;;;;;;4.70;1.90;;;6.70;95.60;;;;;;5053875;28;20021;-76
2021/12/10 12:57:49;;;;;;;;;;;6.70;95.60;;;;;;5069474;28;20028;-76
2021/12/10 13:00:26;;;;;;;6.47;2.25;;;6.70;95.60;;;;;;5052486;28;20470;-76
2021/12/10 13:02:55;;;;;;;6.47;2.00;;;6.70;95.60;;;;;;5053258;28;20044;-76
2021/12/10 13:05:35;;;;;;;9.10;2.50;;;6.70;95.90;;;;;;5053211;28;20120;-76
2021/12/10 13:08:13;;;;;;;4.82;1.88;;;6.70;95.60;;;;;;5052865;28;20457;-76
2021/12/10 13:10:42;;;;;;;4.32;1.60;;;6.70;95.60;;;;;;5053753;28;20021;-76
2021/12/10 13:13:15;;;;;;;4.60;1.88;;;6.70;95.60;;;;;;5035126;28;20511;-76
2021/12/10 13:15:51;;;;;;;5.97;2.08;;;6.80;95.60;;;;;;5053499;28;20013;-76
2021/12/10 13:18:20;;;;;;;4.25;2.20;;;6.80;95.60;;;;;;5052404;28;20048;-76
2021/12/10 13:20:51;;;;;;;3.58;1.77;;;6.80;95.60;;;;;;5052824;28;20013;-76
2021/12/10 13:23:23;;;;;;;5.13;2.70;;;6.80;95.60;;;;;;5053152;28;20033;-76
2021/12/10 13:25:53;;;;;;;4.93;2.13;;;6.80;95.50;;;;;;5052667;28;20381;-76